Monday, July 6, 2015, 7:38 AM EDT

KLNS, Lancaster Airport

Location: Lititz, PA, United States Lat: 40.117
Local Time: 7:38 AM EDT (11:38 GMT) Lon: -76.3
Time Zone: US/Eastern Elev: 403 ft

Show me the last for .
Show Decoded

2015-07-06 06:53 METAR KLNS 061053Z 00000KT 4SM BR SCT009 21/19 A3014 RMK AO2 SLP203 T02060194 =
2015-07-06 05:53 METAR KLNS 060953Z 08004KT 5SM BR OVC008 21/19 A3013 RMK AO2 SLP199 T02060194 =
2015-07-06 04:53 METAR KLNS 060853Z AUTO 11003KT 6SM BR OVC009 20/19 A3013 RMK AO2 SLP199
                 T02000194 56006 =
2015-07-06 04:17 METAR KLNS 060817Z AUTO 00000KT 5SM BR BKN010 BKN060 20/19 A3013 RMK AO2
                 T02000189 =
2015-07-06 03:53 METAR KLNS 060753Z AUTO 09003KT 6SM BR SCT090 19/19 A3013 RMK AO2 SLP200
                 T01940189 =
2015-07-06 02:53 METAR KLNS 060653Z AUTO 06004KT 5SM BR SCT065 BKN085 20/19 A3014 RMK AO2 SLP203
                 T02000189 =
2015-07-06 00:53 METAR KLNS 060453Z AUTO 12003KT 5SM BR CLR 19/19 A3014 RMK AO2 SLP205 T01940189
                 402670167 =
2015-07-05 23:53 METAR KLNS 060353Z AUTO 00000KT 7SM CLR 21/19 A3015 RMK AO2 SLP206 T02110194 =
2015-07-05 22:53 METAR KLNS 060253Z AUTO 08003KT 9SM CLR 22/19 A3014 RMK AO2 SLP203 T02170189
                 51005 =
2015-07-05 21:53 METAR KLNS 060153Z 00000KT 10SM CLR 22/19 A3014 RMK AO2 SLP203 T02220189 =
2015-07-05 19:53 METAR KLNS 052353Z 00000KT 10SM CLR 25/19 A3013 RMK AO2 SLP199 T02500194 10267
                 20250 53001 =
2015-07-05 18:53 METAR KLNS 052253Z 00000KT 10SM FEW041 26/19 A3012 RMK AO2 SLP196 T02560189 =
2015-07-05 17:53 METAR KLNS 052153Z 00000KT 10SM SCT037 26/19 A3011 RMK AO2 SLP195 T02610189 =
2015-07-05 15:53 METAR KLNS 051953Z 25004KT 10SM FEW033 26/18 A3013 RMK AO2 SLP200 T02560183 =
2015-07-05 14:53 METAR KLNS 051853Z 27003KT 10SM SCT040 26/18 A3014 RMK AO2 SLP202 T02560183 =
2015-07-05 13:53 METAR KLNS 051753Z 00000KT 10SM BKN033 25/18 A3015 RMK AO2 SLP208 T02500183
                 10256 20183 58004 =
2015-07-05 12:53 METAR KLNS 051653Z 00000KT 10SM BKN032 25/18 A3016 RMK AO2 SLP210 T02500178 =
2015-07-05 12:14 METAR KLNS 051614Z VRB03KT 10SM OVC030 24/18 A3016 RMK AO2 T02440183 =
2015-07-05 11:53 METAR KLNS 051553Z 13003KT 10SM OVC024 24/19 A3016 RMK AO2 SLP211 T02390189 =
2015-07-05 11:14 METAR KLNS 051514Z 18003KT 9SM BKN021 23/18 A3016 RMK AO2 T02280183 =
2015-07-05 10:53 METAR KLNS 051453Z 00000KT 9SM CLR 23/18 A3016 RMK AO2 SLP212 T02330183 51009 =
2015-07-05 09:53 METAR KLNS 051353Z 30006KT 6SM BR CLR 21/19 A3016 RMK AO2 SLP210 T02110189 =
2015-07-05 09:02 METAR KLNS 051302Z 30003KT 5SM BR FEW009 20/18 A3015 RMK AO2 T02000178 =
2015-07-05 08:53 METAR KLNS 051253Z 29003KT 4SM BR CLR 20/18 A3015 RMK AO2 SLP207 T02000178 =
2015-07-05 07:53 METAR KLNS 051153Z 29005KT 3SM BR CLR 18/17 A3014 RMK AO2 SLP203 70013 T01830172
                 10194 20167 53017 =

Support USWX by starting your Amazon purchase here.